createdAt,value
2023-12-30T00:00:30.265Z,35.03
2023-12-30T00:02:59.204Z,31.88
2023-12-30T00:05:27.635Z,36.83
2023-12-30T00:07:56.627Z,29.98
2023-12-30T00:10:24.554Z,34.10
2023-12-30T00:12:52.602Z,32.63
2023-12-30T00:15:21.857Z,33.28
2023-12-30T00:17:49.755Z,37.17
2023-12-30T00:20:18.078Z,37.35
2023-12-30T00:22:46.122Z,38.78
2023-12-30T00:25:15.398Z,38.67
2023-12-30T00:27:43.044Z,41.00
2023-12-30T00:30:14.550Z,42.00
2023-12-30T00:32:42.332Z,39.75
2023-12-30T00:35:10.243Z,47.63
2023-12-30T00:37:38.249Z,49.97
2023-12-30T00:40:07.507Z,40.50
2023-12-30T00:42:36.950Z,44.92
2023-12-30T00:45:05.977Z,46.00
2023-12-30T00:47:34.132Z,42.38
2023-12-30T00:50:02.393Z,46.90
2023-12-30T00:52:30.837Z,50.65
2023-12-30T00:54:58.639Z,46.83
2023-12-30T00:57:26.606Z,52.83
2023-12-30T00:59:55.591Z,51.30
2023-12-30T01:02:23.513Z,54.28
2023-12-30T01:04:51.520Z,55.45
2023-12-30T01:07:19.225Z,58.80
2023-12-30T01:09:47.078Z,59.40
2023-12-30T01:12:15.029Z,62.72
2023-12-30T01:14:43.006Z,58.23
2023-12-30T01:17:12.700Z,57.88
2023-12-30T01:19:40.742Z,54.78
2023-12-30T01:22:08.706Z,57.05
2023-12-30T01:24:36.669Z,52.07
2023-12-30T01:27:05.258Z,58.25
2023-12-30T01:29:32.972Z,59.78
2023-12-30T01:32:00.886Z,56.63
2023-12-30T01:34:30.175Z,54.40
2023-12-30T01:36:58.050Z,57.40
2023-12-30T01:39:26.230Z,52.97
2023-12-30T01:41:53.910Z,54.10
2023-12-30T01:44:22.631Z,57.10
2023-12-30T01:46:50.802Z,54.72
2023-12-30T01:49:19.003Z,57.72
2023-12-30T01:51:49.450Z,55.42
2023-12-30T01:54:19.884Z,59.97
2023-12-30T01:56:47.784Z,58.20
2023-12-30T01:59:16.766Z,57.43
2023-12-30T02:01:46.445Z,55.42
2023-12-30T02:04:15.241Z,55.03
2023-12-30T02:06:43.126Z,61.07
2023-12-30T02:09:13.799Z,50.03
2023-12-30T02:11:41.990Z,57.13
2023-12-30T02:14:24.250Z,58.28
2023-12-30T02:16:52.606Z,53.10
2023-12-30T02:19:20.833Z,54.88
2023-12-30T02:21:48.913Z,53.33
2023-12-30T02:24:18.602Z,56.75
2023-12-30T02:26:46.335Z,50.60
2023-12-30T02:29:14.596Z,48.22
2023-12-30T02:31:48.921Z,50.07
2023-12-30T02:34:18.195Z,46.53
2023-12-30T02:36:47.854Z,45.63
2023-12-30T02:39:16.314Z,47.03
2023-12-30T02:41:45.384Z,46.20
2023-12-30T02:44:20.215Z,39.53
2023-12-30T02:46:48.300Z,43.07
2023-12-30T02:49:16.256Z,40.87
2023-12-30T02:51:44.556Z,42.83
2023-12-30T02:54:12.597Z,40.37
2023-12-30T02:56:40.277Z,42.23
2023-12-30T02:59:09.448Z,39.80
2023-12-30T03:01:39.406Z,43.60
2023-12-30T03:04:07.403Z,46.93
2023-12-30T03:06:35.867Z,45.80
2023-12-30T03:09:03.861Z,47.33
2023-12-30T03:11:31.996Z,47.90
2023-12-30T03:13:59.686Z,47.13
2023-12-30T03:16:28.805Z,46.70
2023-12-30T03:18:57.418Z,48.03
2023-12-30T03:21:26.023Z,49.37
2023-12-30T03:23:53.665Z,51.83
2023-12-30T03:26:21.607Z,51.65
2023-12-30T03:28:49.257Z,46.55
2023-12-30T03:31:25.417Z,46.58
2023-12-30T03:33:55.495Z,50.13
2023-12-30T03:36:24.492Z,46.85
2023-12-30T03:38:54.424Z,50.37
2023-12-30T03:41:22.945Z,48.43
2023-12-30T03:43:50.969Z,44.97
2023-12-30T03:46:19.153Z,43.92
2023-12-30T03:48:46.969Z,46.20
2023-12-30T03:51:16.149Z,45.93
2023-12-30T03:53:43.884Z,46.73
2023-12-30T03:56:13.364Z,48.55
2023-12-30T03:58:41.186Z,47.33
2023-12-30T04:01:09.415Z,46.30
2023-12-30T04:03:37.179Z,48.90
2023-12-30T04:06:05.316Z,49.73
2023-12-30T04:08:35.372Z,46.27
2023-12-30T04:11:03.446Z,46.57
2023-12-30T04:13:31.240Z,48.53
2023-12-30T04:15:59.193Z,48.53
2023-12-30T04:18:26.989Z,50.30
2023-12-30T04:20:56.025Z,53.60
2023-12-30T04:23:25.409Z,44.77
2023-12-30T04:25:54.668Z,45.97
2023-12-30T04:28:22.562Z,45.43
2023-12-30T04:30:50.788Z,49.73
2023-12-30T04:33:19.129Z,48.33
2023-12-30T04:35:48.530Z,52.20
2023-12-30T04:38:19.101Z,51.73
2023-12-30T04:40:47.718Z,49.07
2023-12-30T04:43:17.019Z,49.63
2023-12-30T04:45:45.031Z,50.00
2023-12-30T04:48:12.936Z,50.00
2023-12-30T04:50:40.763Z,48.53
2023-12-30T04:53:08.725Z,48.90
2023-12-30T04:55:36.775Z,47.77
2023-12-30T04:58:04.876Z,54.13
2023-12-30T05:00:34.592Z,54.93
2023-12-30T05:03:02.961Z,50.10
2023-12-30T05:05:31.567Z,51.03
2023-12-30T05:07:59.437Z,46.37
2023-12-30T05:10:27.380Z,51.90
2023-12-30T05:12:55.127Z,51.60
2023-12-30T05:15:23.110Z,51.33
2023-12-30T05:17:52.351Z,55.10
2023-12-30T05:20:20.297Z,53.43
2023-12-30T05:22:48.020Z,50.40
2023-12-30T05:25:16.182Z,51.23
2023-12-30T05:27:44.138Z,52.93
2023-12-30T05:30:12.203Z,50.83
2023-12-30T05:32:40.204Z,50.30
2023-12-30T05:35:09.926Z,55.07
2023-12-30T05:37:38.010Z,48.90
2023-12-30T05:40:07.820Z,49.13
2023-12-30T05:42:36.227Z,48.05
2023-12-30T05:45:04.452Z,45.10
2023-12-30T05:47:32.349Z,49.37
2023-12-30T05:50:00.089Z,49.10
2023-12-30T05:52:30.148Z,49.17
2023-12-30T05:54:57.909Z,52.47
2023-12-30T05:57:25.712Z,49.47
2023-12-30T05:59:53.367Z,55.40
2023-12-30T06:02:21.474Z,52.43
2023-12-30T06:04:49.223Z,49.33
2023-12-30T06:07:17.410Z,45.90
2023-12-30T06:09:46.513Z,47.43
2023-12-30T06:12:14.386Z,46.20
2023-12-30T06:14:42.065Z,46.53
2023-12-30T06:17:10.285Z,48.37
2023-12-30T06:19:37.914Z,45.97
2023-12-30T06:22:06.326Z,48.20
2023-12-30T06:24:34.972Z,47.50
2023-12-30T06:27:04.227Z,46.60
2023-12-30T06:29:33.362Z,49.30
2023-12-30T06:32:02.141Z,45.30
2023-12-30T06:34:29.834Z,49.27
2023-12-30T06:36:57.849Z,47.13
2023-12-30T06:39:25.564Z,44.40
2023-12-30T06:41:53.320Z,46.33
2023-12-30T06:44:22.482Z,48.10
2023-12-30T06:46:50.114Z,48.73
2023-12-30T06:49:18.258Z,45.60
2023-12-30T06:51:46.058Z,45.13
2023-12-30T06:54:13.779Z,44.10
2023-12-30T06:56:41.457Z,43.77
2023-12-30T06:59:10.885Z,43.73
2023-12-30T07:01:42.047Z,44.67
2023-12-30T07:04:11.091Z,45.60
2023-12-30T07:06:38.949Z,46.77
2023-12-30T07:09:08.529Z,45.50
2023-12-30T07:11:36.578Z,44.23
2023-12-30T07:14:04.604Z,47.90
2023-12-30T07:16:32.392Z,43.13
2023-12-30T07:19:01.700Z,47.57
2023-12-30T07:21:29.480Z,47.80
2023-12-30T07:23:57.813Z,49.47
2023-12-30T07:26:25.473Z,43.53
2023-12-30T07:28:53.492Z,47.47
2023-12-30T07:31:21.517Z,44.93
2023-12-30T07:33:50.626Z,42.97
2023-12-30T07:36:21.276Z,43.50
2023-12-30T07:38:49.184Z,43.67
2023-12-30T07:41:16.866Z,42.20
2023-12-30T07:43:44.953Z,44.83
2023-12-30T07:46:13.165Z,44.70
2023-12-30T07:48:41.242Z,45.93
2023-12-30T07:51:08.961Z,47.77
2023-12-30T07:53:38.333Z,43.57
2023-12-30T07:56:06.945Z,45.13
2023-12-30T07:58:34.808Z,45.07
2023-12-30T08:01:02.725Z,49.90
2023-12-30T08:03:30.800Z,47.93
2023-12-30T08:05:58.616Z,45.47
2023-12-30T08:08:26.721Z,45.40
2023-12-30T08:10:55.713Z,43.67
2023-12-30T08:13:23.402Z,45.07
2023-12-30T08:15:51.285Z,50.13
2023-12-30T08:18:19.054Z,47.85
2023-12-30T08:20:47.586Z,43.27
2023-12-30T08:23:15.265Z,46.87
2023-12-30T08:25:43.329Z,47.00
2023-12-30T08:28:12.438Z,48.63
2023-12-30T08:30:40.258Z,46.77
2023-12-30T08:33:10.840Z,47.17
2023-12-30T08:35:39.175Z,43.05
2023-12-30T08:38:06.808Z,46.92
2023-12-30T08:40:37.001Z,43.80
2023-12-30T08:43:05.789Z,43.90
2023-12-30T08:45:36.166Z,45.42
2023-12-30T08:48:05.093Z,45.93
2023-12-30T08:50:33.744Z,47.30
2023-12-30T08:53:01.754Z,47.50
2023-12-30T08:55:29.795Z,50.35
2023-12-30T08:57:57.629Z,49.10
2023-12-30T09:00:25.706Z,49.78
2023-12-30T09:02:56.491Z,49.75
2023-12-30T09:05:24.661Z,50.75
2023-12-30T09:07:52.618Z,51.35
2023-12-30T09:10:21.939Z,46.20
2023-12-30T09:12:49.765Z,49.28
2023-12-30T09:15:17.969Z,48.78
2023-12-30T09:17:45.894Z,48.00
2023-12-30T09:20:15.413Z,49.80
2023-12-30T09:22:43.183Z,52.03
2023-12-30T09:25:11.409Z,54.10
2023-12-30T09:27:39.126Z,53.97
2023-12-30T09:30:08.307Z,56.28
2023-12-30T09:32:36.116Z,57.80
2023-12-30T09:35:04.576Z,65.88
2023-12-30T09:37:33.784Z,64.35
2023-12-30T09:40:01.521Z,60.58
2023-12-30T09:42:29.508Z,64.00
2023-12-30T09:44:57.429Z,56.55
2023-12-30T09:47:26.661Z,64.30
2023-12-30T09:49:56.728Z,64.05
2023-12-30T09:52:24.838Z,70.38
2023-12-30T09:54:54.621Z,66.85
2023-12-30T09:57:23.030Z,66.78
2023-12-30T09:59:51.579Z,69.35
2023-12-30T10:02:19.601Z,69.40
2023-12-30T10:04:50.517Z,61.50
2023-12-30T10:07:18.704Z,66.03
2023-12-30T10:09:47.727Z,67.35
2023-12-30T10:12:16.970Z,64.50
2023-12-30T10:14:44.726Z,64.32
2023-12-30T10:17:12.827Z,63.70
2023-12-30T10:19:40.554Z,58.92
2023-12-30T10:22:08.712Z,59.75
2023-12-30T10:24:36.680Z,66.88
2023-12-30T10:27:05.895Z,66.60
2023-12-30T10:29:46.447Z,65.80
2023-12-30T10:32:23.419Z,69.97
2023-12-30T10:34:52.093Z,62.70
2023-12-30T10:37:22.124Z,65.75
2023-12-30T10:39:51.473Z,61.88
2023-12-30T10:42:19.434Z,71.05
2023-12-30T10:44:48.781Z,65.82
2023-12-30T10:47:17.677Z,60.47
2023-12-30T10:49:52.260Z,62.35
2023-12-30T10:52:25.070Z,54.08
2023-12-30T10:55:01.251Z,52.53
2023-12-30T10:57:37.808Z,53.47
2023-12-30T11:00:10.362Z,52.08
2023-12-30T11:02:39.578Z,47.60
2023-12-30T11:05:10.390Z,48.08
2023-12-30T11:07:39.706Z,43.00
2023-12-30T11:10:17.751Z,48.05
2023-12-30T11:12:46.778Z,46.65
2023-12-30T11:15:26.376Z,44.65
2023-12-30T11:17:55.001Z,42.80
2023-12-30T11:20:25.106Z,43.75
2023-12-30T11:22:54.507Z,45.92
2023-12-30T11:25:23.041Z,48.47
2023-12-30T11:27:54.338Z,45.85
2023-12-30T11:30:28.052Z,42.60
2023-12-30T11:32:59.384Z,37.38
2023-12-30T11:35:28.240Z,42.78
2023-12-30T11:37:59.385Z,38.15
2023-12-30T11:40:30.288Z,41.60
2023-12-30T11:42:58.414Z,43.00
2023-12-30T11:45:27.818Z,41.63
2023-12-30T11:47:56.056Z,37.15
2023-12-30T11:50:24.186Z,40.05
2023-12-30T11:52:51.836Z,37.42
2023-12-30T11:55:20.013Z,38.35
2023-12-30T11:57:48.071Z,35.28
2023-12-30T12:00:16.456Z,37.50
2023-12-30T12:02:45.502Z,35.20
2023-12-30T12:05:13.661Z,38.33
2023-12-30T12:07:41.403Z,42.50
2023-12-30T12:10:10.076Z,44.92
2023-12-30T12:12:39.214Z,44.25
2023-12-30T12:15:10.200Z,45.60
2023-12-30T12:17:38.359Z,44.92
2023-12-30T12:20:12.414Z,42.40
2023-12-30T12:22:40.765Z,47.67
2023-12-30T12:25:10.802Z,48.28
2023-12-30T12:27:38.772Z,49.08
2023-12-30T12:30:09.941Z,48.45
2023-12-30T12:32:37.945Z,45.17
2023-12-30T12:35:06.183Z,47.50
2023-12-30T12:37:35.972Z,47.10
2023-12-30T12:40:05.824Z,51.63
2023-12-30T12:42:33.817Z,55.35
2023-12-30T12:45:01.515Z,58.45
2023-12-30T12:47:29.984Z,64.68
2023-12-30T12:49:58.315Z,66.70
2023-12-30T12:52:26.363Z,69.03
2023-12-30T12:54:55.515Z,63.03
2023-12-30T12:57:25.123Z,60.22
2023-12-30T12:59:52.790Z,55.85
2023-12-30T13:02:20.970Z,56.85
2023-12-30T13:04:49.055Z,52.90
2023-12-30T13:07:16.766Z,47.90
2023-12-30T13:09:55.082Z,49.58
2023-12-30T13:12:24.968Z,50.13
2023-12-30T13:14:53.542Z,47.70
2023-12-30T13:17:21.355Z,51.08
2023-12-30T13:19:51.075Z,50.70
2023-12-30T13:22:19.894Z,47.03
2023-12-30T13:24:49.096Z,46.90
2023-12-30T13:27:16.883Z,48.90
2023-12-30T13:29:46.104Z,47.40
2023-12-30T13:32:15.721Z,42.00
2023-12-30T13:34:45.549Z,43.35
2023-12-30T13:37:13.781Z,41.78
2023-12-30T13:39:42.687Z,42.47
2023-12-30T13:42:12.436Z,42.22
2023-12-30T13:44:44.017Z,41.17
2023-12-30T13:47:39.429Z,43.13
2023-12-30T13:50:15.951Z,38.85
2023-12-30T13:52:44.205Z,37.35
2023-12-30T13:55:14.237Z,40.03
2023-12-30T13:57:43.781Z,40.47
2023-12-30T14:00:14.436Z,34.20
2023-12-30T14:02:45.294Z,35.85
2023-12-30T14:05:18.836Z,34.72
2023-12-30T14:07:47.022Z,38.35
2023-12-30T14:10:19.410Z,35.75
2023-12-30T14:12:49.834Z,33.17
2023-12-30T14:15:19.066Z,34.80
2023-12-30T14:17:48.599Z,35.78
2023-12-30T14:20:16.677Z,34.10
2023-12-30T14:22:44.938Z,35.20
2023-12-30T14:25:14.332Z,35.33
2023-12-30T14:27:42.261Z,37.67
2023-12-30T14:30:13.211Z,37.22
2023-12-30T14:32:42.938Z,35.63
2023-12-30T14:35:15.348Z,33.95
2023-12-30T14:37:43.990Z,35.95
2023-12-30T14:40:12.150Z,36.40
2023-12-30T14:42:40.234Z,37.33
2023-12-30T14:45:10.660Z,37.38
2023-12-30T14:47:39.427Z,39.45
2023-12-30T14:50:10.006Z,39.13
2023-12-30T14:52:40.880Z,37.70
2023-12-30T14:55:11.197Z,34.17
2023-12-30T14:57:40.433Z,38.55
2023-12-30T15:00:14.312Z,40.45
2023-12-30T15:02:42.491Z,38.97
2023-12-30T15:05:12.790Z,36.88
2023-12-30T15:07:43.369Z,33.28
2023-12-30T15:10:14.604Z,34.92
2023-12-30T15:12:44.588Z,38.65
2023-12-30T15:15:14.373Z,35.72
2023-12-30T15:17:42.669Z,34.83
2023-12-30T15:20:10.968Z,36.28
2023-12-30T15:22:40.624Z,40.63
2023-12-30T15:25:12.348Z,35.95
2023-12-30T15:27:41.984Z,38.00
2023-12-30T15:30:11.614Z,41.17
2023-12-30T15:32:40.541Z,41.17
2023-12-30T15:35:09.983Z,43.03
2023-12-30T15:37:39.241Z,44.08
2023-12-30T15:40:10.408Z,48.42
2023-12-30T15:42:38.534Z,49.40
2023-12-30T15:45:07.261Z,52.15
2023-12-30T15:47:35.486Z,53.15
2023-12-30T15:50:03.634Z,52.75
2023-12-30T15:52:31.454Z,52.10
2023-12-30T15:55:00.909Z,54.35
2023-12-30T15:57:30.231Z,53.97
2023-12-30T15:59:57.908Z,53.20
2023-12-30T16:02:25.969Z,54.05
2023-12-30T16:04:54.139Z,54.78
2023-12-30T16:07:21.834Z,51.63
2023-12-30T16:09:50.071Z,53.10
2023-12-30T16:12:17.736Z,54.85
2023-12-30T16:14:46.846Z,52.08
2023-12-30T16:17:15.461Z,56.65
2023-12-30T16:19:43.568Z,61.33
2023-12-30T16:22:11.617Z,55.20
2023-12-30T16:24:39.275Z,51.47
2023-12-30T16:27:07.246Z,55.60
2023-12-30T16:29:42.044Z,54.10
2023-12-30T16:32:11.372Z,53.28
2023-12-30T16:34:39.182Z,57.97
2023-12-30T16:37:07.476Z,59.67
2023-12-30T16:39:35.137Z,55.25
2023-12-30T16:42:02.782Z,61.13
2023-12-30T16:44:30.601Z,55.83
2023-12-30T16:46:58.270Z,55.85
2023-12-30T16:49:27.992Z,55.20
2023-12-30T16:51:57.408Z,51.60
2023-12-30T16:54:25.632Z,54.53
2023-12-30T16:56:53.420Z,53.72
2023-12-30T16:59:21.966Z,53.67
2023-12-30T17:01:49.769Z,48.47
2023-12-30T17:04:17.815Z,48.90
2023-12-30T17:06:46.917Z,49.15
2023-12-30T17:09:15.835Z,51.03
2023-12-30T17:11:43.497Z,54.97
2023-12-30T17:14:11.818Z,57.08
2023-12-30T17:16:39.974Z,48.83
2023-12-30T17:19:07.731Z,49.77
2023-12-30T17:21:37.154Z,48.47
2023-12-30T17:24:07.039Z,48.70
2023-12-30T17:26:35.024Z,46.08
2023-12-30T17:29:03.014Z,44.55
2023-12-30T17:31:31.038Z,44.27
2023-12-30T17:33:58.836Z,42.63
2023-12-30T17:36:27.328Z,43.17
2023-12-30T17:38:57.092Z,42.60
2023-12-30T17:41:26.451Z,41.77
2023-12-30T17:43:54.331Z,41.13
2023-12-30T17:46:22.994Z,37.70
2023-12-30T17:48:50.969Z,37.33
2023-12-30T17:51:18.663Z,34.53
2023-12-30T17:53:46.721Z,36.03
2023-12-30T17:56:15.380Z,34.57
2023-12-30T17:58:44.781Z,32.73
2023-12-30T18:01:13.200Z,34.10
2023-12-30T18:03:41.029Z,29.30
2023-12-30T18:06:08.901Z,31.60
2023-12-30T18:08:37.200Z,30.67
2023-12-30T18:11:05.532Z,32.87
2023-12-30T18:13:33.263Z,29.80
2023-12-30T18:16:02.569Z,27.93
2023-12-30T18:18:30.406Z,25.50
2023-12-30T18:20:58.704Z,25.93
2023-12-30T18:23:26.480Z,26.23
2023-12-30T18:25:54.242Z,24.87
2023-12-30T18:28:22.538Z,26.60
2023-12-30T18:30:50.287Z,27.20
2023-12-30T18:33:19.813Z,25.67
2023-12-30T18:35:47.627Z,28.93
2023-12-30T18:38:15.595Z,29.83
2023-12-30T18:40:44.240Z,28.90
2023-12-30T18:43:12.925Z,28.07
2023-12-30T18:45:41.519Z,30.30
2023-12-30T18:48:11.737Z,28.07
2023-12-30T18:50:41.864Z,31.73
2023-12-30T18:53:09.683Z,31.97
2023-12-30T18:55:37.523Z,32.83
2023-12-30T18:58:05.507Z,32.10
2023-12-30T19:00:33.406Z,35.33
2023-12-30T19:03:01.404Z,39.90
2023-12-30T19:05:30.487Z,41.93
2023-12-30T19:07:59.649Z,48.17
2023-12-30T19:10:29.776Z,49.60
2023-12-30T19:12:57.992Z,52.00
2023-12-30T19:15:26.297Z,51.95
2023-12-30T19:17:54.160Z,44.47
2023-12-30T19:20:22.377Z,46.20
2023-12-30T19:22:50.498Z,45.92
2023-12-30T19:25:19.756Z,41.38
2023-12-30T19:27:47.924Z,42.33
2023-12-30T19:30:16.024Z,39.33
2023-12-30T19:32:44.149Z,37.03
2023-12-30T19:35:12.281Z,36.60
2023-12-30T19:37:43.568Z,36.90
2023-12-30T19:40:12.841Z,38.22
2023-12-30T19:42:42.030Z,44.55
2023-12-30T19:45:13.096Z,43.45
2023-12-30T19:47:41.370Z,43.92
2023-12-30T19:50:10.698Z,44.05
2023-12-30T19:52:39.870Z,41.55
2023-12-30T19:55:09.410Z,43.28
2023-12-30T19:57:38.460Z,42.60
2023-12-30T20:00:10.122Z,43.38
2023-12-30T20:02:37.843Z,43.08
2023-12-30T20:05:06.855Z,42.95
2023-12-30T20:07:34.926Z,40.65
2023-12-30T20:10:02.732Z,44.72
2023-12-30T20:12:30.761Z,44.15
2023-12-30T20:14:58.425Z,43.05
2023-12-30T20:17:27.626Z,46.38
2023-12-30T20:19:55.405Z,40.83
2023-12-30T20:22:25.263Z,47.33
2023-12-30T20:24:53.433Z,44.88
2023-12-30T20:27:21.621Z,49.60
2023-12-30T20:29:50.395Z,47.50
2023-12-30T20:32:18.170Z,43.33
2023-12-30T20:34:49.662Z,43.67
2023-12-30T20:37:19.697Z,46.22
2023-12-30T20:39:48.030Z,42.88
2023-12-30T20:42:18.586Z,42.50
2023-12-30T20:44:46.882Z,36.95
2023-12-30T20:47:14.868Z,37.70
2023-12-30T20:49:45.266Z,42.67
2023-12-30T20:52:14.654Z,32.38
2023-12-30T20:54:42.981Z,30.02
2023-12-30T20:57:10.970Z,27.48
2023-12-30T20:59:38.634Z,29.75
2023-12-30T21:02:06.711Z,27.80
2023-12-30T21:04:36.234Z,31.38
2023-12-30T21:07:04.458Z,33.50
2023-12-30T21:09:34.379Z,34.80
2023-12-30T21:12:02.474Z,33.25
2023-12-30T21:14:30.177Z,32.83
2023-12-30T21:16:57.863Z,31.65
2023-12-30T21:19:25.570Z,34.58
2023-12-30T21:21:53.265Z,32.80
2023-12-30T21:24:21.526Z,35.00
2023-12-30T21:26:50.557Z,36.50
2023-12-30T21:29:18.528Z,33.80
2023-12-30T21:31:46.474Z,38.13
2023-12-30T21:34:15.509Z,39.53
2023-12-30T21:36:43.471Z,40.50
2023-12-30T21:39:13.598Z,40.80
2023-12-30T21:41:43.037Z,45.53
2023-12-30T21:44:12.640Z,43.93
2023-12-30T21:46:44.067Z,47.13
2023-12-30T21:49:14.898Z,41.22
2023-12-30T21:51:43.178Z,40.60
2023-12-30T21:54:10.846Z,43.35
2023-12-30T21:56:38.629Z,34.25
2023-12-30T21:59:06.448Z,32.88
2023-12-30T22:01:36.667Z,30.65
2023-12-30T22:04:05.290Z,33.45
2023-12-30T22:06:33.467Z,34.20
2023-12-30T22:09:01.380Z,33.03
2023-12-30T22:11:29.185Z,34.15
2023-12-30T22:13:57.653Z,32.38
2023-12-30T22:16:25.343Z,30.55
2023-12-30T22:18:54.804Z,31.53
2023-12-30T22:21:22.549Z,32.42
2023-12-30T22:23:50.416Z,31.43
2023-12-30T22:26:18.895Z,33.77
2023-12-30T22:28:46.912Z,37.07
2023-12-30T22:31:14.928Z,35.00
2023-12-30T22:33:43.340Z,32.03
2023-12-30T22:36:12.459Z,30.97
2023-12-30T22:38:40.695Z,30.50
2023-12-30T22:41:08.348Z,30.50
2023-12-30T22:43:36.563Z,28.50
2023-12-30T22:46:05.696Z,31.60
2023-12-30T22:48:33.702Z,33.03
2023-12-30T22:51:01.365Z,31.70
2023-12-30T22:53:30.753Z,31.83
2023-12-30T22:55:58.613Z,29.35
2023-12-30T22:58:26.361Z,33.42
2023-12-30T23:00:54.446Z,33.55
2023-12-30T23:03:22.223Z,32.67
2023-12-30T23:05:50.124Z,33.15
2023-12-30T23:08:17.915Z,35.67
2023-12-30T23:10:47.251Z,36.93
2023-12-30T23:13:15.029Z,38.40
2023-12-30T23:15:43.038Z,37.40
2023-12-30T23:18:09.904Z,39.70
2023-12-30T23:20:37.860Z,37.70
2023-12-30T23:23:05.820Z,42.30
2023-12-30T23:25:33.984Z,40.65
2023-12-30T23:28:03.278Z,43.75
2023-12-30T23:30:31.170Z,38.90
2023-12-30T23:32:58.943Z,43.83
2023-12-30T23:35:27.074Z,37.55
2023-12-30T23:37:54.797Z,41.97
2023-12-30T23:40:22.697Z,43.15
2023-12-30T23:42:50.367Z,40.78
2023-12-30T23:45:19.492Z,42.17
2023-12-30T23:47:47.281Z,38.17
2023-12-30T23:50:15.636Z,39.45
2023-12-30T23:52:43.493Z,40.15
2023-12-30T23:55:11.492Z,39.10
2023-12-30T23:57:39.357Z,36.20
